Aviation Digital Data Service (ADDS)

Output produced by METARs form (1908 UTC 25 June 2017)
found at http://www.aviationweather.gov/adds/metars/
 
SLCO 251900Z 00000KT 9999 SCT035 33/23 Q1013
TAF SLCO 251600Z 2518/2618 35005KT 9999 SCT030 TX34/2519Z TN20/2610Z 
     BECMG 2520/2522 30007KT SCT033 
     BECMG 2523/2603 00000KT FEW023
       
SLCB 251900Z 24003KT 9000 NSC 25/M07 Q1022
TAF SLCB 251600Z 2518/2618 04005KT 9999 NSC TX27/2519Z TN04/2611Z 
     BECMG 2610/2612 00000KT
       
SLLP 251900Z 30007KT 9999 FEW020 15/M07 Q1036
TAF SLLP 251600Z 2518/2618 24010G20KT 9999 FEW020 TX16/2520Z TNM06/2610Z 
     BECMG 2523/2602 04005KT FEW012 
     BECMG 2612/2614 NSC
       
SLOR 251700Z 18008KT 9999 NSC 14/M04 Q1036
TAF SLOR 251600Z 2518/2618 30010KT 9999 NSC TX16/2520Z TNM08/2610Z 
     BECMG 2523/2602 040051600Z 2518/2618 34012KT 9999 NSC TX12/2520Z TNM14/2610Z 
     BECMG 2601/2603 02010KT 
     BECMG 2612/2614 30008KT
       
SLPO 251400Z 24006KT 9999 NSC 05/M06 Q1040
SLPS 251900Z 09005KT 9999 NSC 29/21 Q1013
TAF SLPS 251600Z 2518/2618 06012KT 9999 FEW020 TX32/2519Z TN15/2610Z 
     BECMG 2523/2601 06003KT NSC 
     BECMG 2614/2616 06010KT FEW020 
       
SLRI 251900Z 33006KT 9999 SCT017 33/23 Q1013
SLSA 251900Z 36004KT 9999 SCT020 31/22 Q1013
SLET 251900Z 32018G30KT 9999 BKN017 28/19 Q1011
TAF SLET 251600Z 2518/2618 33015G30KT 9999 SCT020 FEW027TCU TX30/2520Z TN19/2611Z 
     BECMG 2523/2601 33012KT NSC 
     TEMPO 2607/2611 SCT017 BKN070 
     BECMG 2615/2617 33020G35KT SCT020
       
SLVR 251900Z 34015G26KT 9999 BKN023 29/19 Q1012
TAF SLVR 251600Z 2518/2618 34015G30KT 9999 SCT020 FEW027TCU TX30/2520Z TN19/2611Z 
     BECMG 2523/2601 34012KT NSC 
     TEMPO 2607/2611 SCT017 BKN070 
     BECMG 2615/2617 34020G35KT SCT020
       
SLTJ 251900Z 00000KT 9999 NSC 29/04 Q1013
TAF SLTJ 251600Z 2518/2618 04005KT 9999 NSC TX30/2519Z TN02/2611Z 
     BECMG 2523/2601 00000KT
       
SLTR 251900Z 33007KT 9999 FEW020 32/22 Q1012
TAF SLTR 251600Z 2518/2618 33005KT 9999 FEW020 TX33/2519Z TN20/2611Z 
     BECMG 2519/2521 29006KT SCT023 
     BECMG 2522/2602 00000KT FEW017
       
SLYA 251900Z 04016KT 9999 SCT025 BKN200 25/20 Q1009
TAF SLYA 251600Z 2518/2618 04010KT 9999 SCT023 TX28/2519Z TN11/2611Z 
     BECMG 2522/2600 00000KT 
     BECMG 2614/2616 04010KT